Time;durP1;ratioP1;P1;durP2;ratioP2;P2;SDS_P1;SDS_P2;PMS_P1;PMS_P2;Temp;Humidity;BMP_temperature;BMP_pressure;BME280_temperature;BME280_humidity;BME280_pressure;Samples;Min_cycle;Max_cycle;Signal;HPM_P1;HPM_P2
2022/05/14 00:00:25;;;;;;;0.22;0.22;;;14.00;99.90;;;;;;5033124;28;20049;-70
2022/05/14 00:02:51;;;;;;;3.50;1.05;;;13.90;99.90;;;;;;5033537;28;20073;-70
2022/05/14 00:05:19;;;;;;;0.22;0.22;;;13.90;99.90;;;;;;5030234;28;20444;-70
2022/05/14 00:07:46;;;;;;;0.93;0.85;;;13.90;99.90;;;;;;5033456;28;20084;-70
2022/05/14 00:10:12;;;;;;;0.03;0.03;;;13.90;99.90;;;;;;5033346;28;20045;-70
2022/05/14 00:15:22;;;;;;;0.00;0.00;;;13.80;99.90;;;;;;5016159;28;20503;-70
2022/05/14 00:17:48;;;;;;;0.25;0.25;;;13.70;99.90;;;;;;5013552;28;20133;-70
2022/05/14 00:20:15;;;;;;;0.10;0.10;;;13.70;99.90;;;;;;5012729;28;20037;-70
2022/05/14 00:22:41;;;;;;;0.10;0.10;;;13.70;99.90;;;;;;5011392;28;20124;-70
2022/05/14 00:25:07;;;;;;;0.68;0.68;;;13.70;99.90;;;;;;5012117;28;20049;-70
2022/05/14 00:27:33;;;;;;;0.30;0.30;;;13.70;99.90;;;;;;5012598;28;20137;-70
2022/05/14 00:29:58;;;;;;;3.60;0.73;;;13.70;99.90;;;;;;5012844;28;20137;-70
2022/05/14 00:32:24;;;;;;;0.20;0.20;;;13.70;99.90;;;;;;5021068;28;20057;-70
2022/05/14 00:34:49;;;;;;;3.40;0.85;;;13.70;99.90;;;;;;5030200;28;20045;-70
2022/05/14 00:37:15;;;;;;;0.45;0.45;;;13.70;99.90;;;;;;5030636;28;20045;-69
2022/05/14 00:39:41;;;;;;;0.30;0.30;;;13.70;99.90;;;;;;5015337;28;20053;-69
2022/05/14 00:42:07;;;;;;;0.65;0.65;;;13.70;99.90;;;;;;5012489;28;20421;-70
2022/05/14 00:44:32;;;;;;;0.10;0.10;;;13.70;99.90;;;;;;5012256;28;20417;-70
2022/05/14 00:47:09;;;;;;;0.10;0.10;;;13.70;99.90;;;;;;5009999;28;20065;-70
2022/05/14 00:49:34;;;;;;;3.40;1.13;;;13.70;99.90;;;;;;5012410;28;20085;-69
2022/05/14 00:52:01;;;;;;;0.20;0.20;;;13.70;99.90;;;;;;5012322;28;20081;-70
2022/05/14 00:54:34;;;;;;;0.10;0.10;;;13.60;99.90;;;;;;5010654;28;20397;-69
2022/05/14 00:57:05;;;;;;;0.10;0.10;;;13.70;99.90;;;;;;5030262;28;20037;-70
2022/05/14 00:59:31;;;;;;;0.00;0.00;;;13.70;99.90;;;;;;5010762;28;20054;-69
2022/05/14 01:01:59;;;;;;;0.10;0.10;;;13.60;99.90;;;;;;5011778;28;20054;-69
2022/05/14 01:04:26;;;;;;;1.10;0.55;;;13.70;99.90;;;;;;5011016;28;20539;-69
2022/05/14 01:07:03;;;;;;;0.20;0.20;;;13.60;99.90;;;;;;5010420;28;20606;-70
2022/05/14 01:09:30;;;;;;;0.10;0.10;;;13.60;99.90;;;;;;5024811;28;20041;-70
2022/05/14 01:11:56;;;;;;;1.35;1.27;;;13.50;99.90;;;;;;5031665;28;20497;-69
2022/05/14 01:14:22;;;;;;;0.10;0.10;;;13.50;99.90;;;;;;5022324;28;20083;-70
2022/05/14 01:16:48;;;;;;;0.85;0.65;;;13.50;99.90;;;;;;5014105;28;20086;-69
2022/05/14 01:19:13;;;;;;;0.28;0.22;;;13.50;99.90;;;;;;5030920;28;20112;-70
2022/05/14 01:21:41;;;;;;;0.25;0.25;;;13.50;99.90;;;;;;5028546;28;20044;-69
2022/05/14 01:27:03;;;;;;;0.00;0.00;;;13.40;99.90;;;;;;5028793;28;20535;-70
2022/05/14 01:29:29;;;;;;;1.75;0.85;;;13.30;99.90;;;;;;5030154;28;20670;-70
2022/05/14 01:31:55;;;;;;;0.88;0.82;;;13.30;99.90;;;;;;5031625;28;20033;-69
2022/05/14 01:34:33;;;;;;;0.10;0.10;;;13.30;99.90;;;;;;5029151;28;20037;-69
2022/05/14 01:36:59;;;;;;;0.00;0.00;;;13.30;99.90;;;;;;5027136;28;20124;-69
2022/05/14 01:39:25;;;;;;;0.20;0.20;;;13.20;99.90;;;;;;5031173;28;20129;-70
2022/05/14 01:41:51;;;;;;;0.05;0.05;;;13.20;99.90;;;;;;5031293;28;20481;-70
2022/05/14 01:44:17;;;;;;;0.03;0.03;;;13.10;99.90;;;;;;5027723;28;20045;-69
2022/05/14 01:46:43;;;;;;;0.00;0.00;;;13.10;99.90;;;;;;5031050;28;20045;-70
2022/05/14 01:49:09;;;;;;;0.30;0.30;;;13.00;99.90;;;;;;5030927;28;20401;-69
2022/05/14 01:51:35;;;;;;;1.00;0.95;;;12.90;99.90;;;;;;5009409;28;20049;-69
2022/05/14 01:54:01;;;;;;;1.67;1.55;;;13.00;99.90;;;;;;5011242;28;20046;-69
2022/05/14 01:56:27;;;;;;;0.30;0.30;;;13.00;99.90;;;;;;5010652;28;20041;-70
2022/05/14 01:58:53;;;;;;;6.63;0.65;;;12.90;99.90;;;;;;5009895;28;20180;-69
2022/05/14 02:01:20;;;;;;;0.10;0.10;;;12.90;99.90;;;;;;5009545;28;20053;-70
2022/05/14 02:03:49;;;;;;;0.10;0.10;;;12.90;99.90;;;;;;5010540;28;20048;-69
2022/05/14 02:06:16;;;;;;;0.52;0.52;;;12.80;99.90;;;;;;5009553;28;20049;-69
2022/05/14 02:08:42;;;;;;;1.20;0.80;;;12.80;99.90;;;;;;5009276;28;20405;-69
2022/05/14 02:11:09;;;;;;;0.98;0.98;;;12.70;99.90;;;;;;5010485;28;20057;-69
2022/05/14 02:13:36;;;;;;;0.10;0.10;;;12.80;99.90;;;;;;5029598;28;20041;-69
2022/05/14 02:16:03;;;;;;;0.75;0.63;;;12.70;99.90;;;;;;5011078;28;20045;-69
2022/05/14 02:18:28;;;;;;;1.75;1.02;;;12.80;99.90;;;;;;5009637;28;20144;-69
2022/05/14 02:20:54;;;;;;;1.58;0.65;;;12.70;99.90;;;;;;5010387;28;20137;-69
2022/05/14 02:23:20;;;;;;;0.15;0.15;;;12.70;99.90;;;;;;5010358;28;20045;-69
2022/05/14 02:25:46;;;;;;;4.68;1.95;;;12.70;99.90;;;;;;5010454;28;20041;-69
2022/05/14 02:28:12;;;;;;;0.03;0.03;;;12.70;99.90;;;;;;5010066;28;20111;-69
2022/05/14 02:30:37;;;;;;;14.80;2.13;;;12.60;99.90;;;;;;5029285;28;20041;-69
2022/05/14 02:33:03;;;;;;;0.93;0.88;;;12.60;99.90;;;;;;5028698;28;20065;-69
2022/05/14 02:35:29;;;;;;;0.32;0.32;;;12.50;99.90;;;;;;5026841;28;20516;-69
2022/05/14 02:37:55;;;;;;;0.30;0.30;;;12.40;99.90;;;;;;5029260;28;20471;-69
2022/05/14 02:40:21;;;;;;;10.43;0.95;;;12.50;99.90;;;;;;5027834;28;20051;-69
2022/05/14 02:42:47;;;;;;;0.15;0.15;;;12.40;99.90;;;;;;5017996;28;20065;-69
2022/05/14 02:45:14;;;;;;;0.93;0.93;;;12.40;99.90;;;;;;5010538;28;20042;-69
2022/05/14 02:47:40;;;;;;;0.10;0.10;;;12.40;99.90;;;;;;5009938;28;20136;-69
2022/05/14 02:50:08;;;;;;;3.50;1.98;;;12.40;99.90;;;;;;5026992;28;20125;-69
2022/05/14 02:52:34;;;;;;;0.10;0.10;;;12.40;99.90;;;;;;5030350;28;20045;-69
2022/05/14 02:54:59;;;;;;;0.10;0.10;;;12.50;99.90;;;;;;5030719;28;20045;-69
2022/05/14 02:57:25;;;;;;;0.20;0.20;;;12.50;99.90;;;;;;5031854;28;20054;-69
2022/05/14 02:59:51;;;;;;;0.70;0.70;;;12.50;99.90;;;;;;5033621;28;20061;-69
2022/05/14 03:02:17;;;;;;;0.38;0.38;;;12.40;99.90;;;;;;5032889;28;20053;-69
2022/05/14 03:04:44;;;;;;;1.38;1.27;;;12.30;99.90;;;;;;5033866;28;20409;-69
2022/05/14 03:07:11;;;;;;;0.10;0.10;;;12.20;99.90;;;;;;5031026;28;20052;-69
2022/05/14 03:09:39;;;;;;;0.65;0.65;;;12.10;99.90;;;;;;5034043;28;20095;-69
2022/05/14 03:12:06;;;;;;;1.33;0.68;;;12.10;99.90;;;;;;5032838;28;20516;-69
2022/05/14 03:14:33;;;;;;;0.50;0.50;;;12.10;99.90;;;;;;5023354;28;20072;-69
2022/05/14 03:16:58;;;;;;;0.03;0.03;;;12.10;99.90;;;;;;5012586;28;20084;-69
2022/05/14 03:19:24;;;;;;;0.47;0.47;;;12.10;99.90;;;;;;5012810;28;20100;-69
2022/05/14 03:21:50;;;;;;;0.10;0.10;;;12.10;99.90;;;;;;5013559;28;20053;-69
2022/05/14 03:24:16;;;;;;;0.10;0.10;;;12.10;99.90;;;;;;5012706;28;20397;-69
2022/05/14 03:26:42;;;;;;;0.13;0.13;;;12.00;99.90;;;;;;5012294;28;20082;-69
2022/05/14 03:29:09;;;;;;;0.00;0.00;;;12.00;99.90;;;;;;5013183;28;20049;-69
2022/05/14 03:31:35;;;;;;;3.90;1.00;;;11.90;99.90;;;;;;5012322;28;20042;-69
2022/05/14 03:34:01;;;;;;;2.05;1.08;;;11.80;99.90;;;;;;5027800;28;20045;-69
2022/05/14 03:36:27;;;;;;;1.60;1.17;;;11.90;99.90;;;;;;5030980;28;20053;-69
2022/05/14 03:38:53;;;;;;;0.10;0.10;;;11.90;99.90;;;;;;5032327;28;20121;-69
2022/05/14 03:41:20;;;;;;;0.85;0.85;;;12.00;99.90;;;;;;5032855;28;20409;-68
2022/05/14 03:43:46;;;;;;;0.00;0.00;;;12.00;99.90;;;;;;5016733;28;20188;-68
2022/05/14 03:46:11;;;;;;;0.10;0.10;;;12.10;99.90;;;;;;5013323;28;20525;-69
2022/05/14 03:48:37;;;;;;;0.38;0.38;;;12.10;99.90;;;;;;5032740;28;20048;-69
2022/05/14 03:51:04;;;;;;;0.10;0.10;;;12.00;99.90;;;;;;5032565;28;20038;-68
2022/05/14 03:53:30;;;;;;;1.17;0.85;;;12.00;99.90;;;;;;5029789;28;20634;-69
2022/05/14 03:55:56;;;;;;;0.73;0.73;;;11.90;99.90;;;;;;5033065;28;20469;-69
2022/05/14 03:58:22;;;;;;;0.38;0.38;;;11.80;99.90;;;;;;5032056;28;20156;-69
2022/05/14 04:00:48;;;;;;;0.10;0.10;;;11.80;99.90;;;;;;5031827;28;20124;-69
2022/05/14 04:03:14;;;;;;;0.10;0.10;;;11.70;99.90;;;;;;5021137;28;20165;-69
2022/05/14 04:05:40;;;;;;;1.45;0.60;;;11.70;99.90;;;;;;5012629;28;20485;-69
2022/05/14 04:08:05;;;;;;;0.20;0.20;;;11.80;99.90;;;;;;5011681;28;20056;-69
2022/05/14 04:10:32;;;;;;;0.03;0.03;;;11.80;99.90;;;;;;5012453;28;20135;-69
2022/05/14 04:12:58;;;;;;;0.30;0.30;;;11.80;99.90;;;;;;5012014;28;20085;-69
2022/05/14 04:15:24;;;;;;;0.57;0.57;;;11.90;99.90;;;;;;5014425;28;20045;-69
2022/05/14 04:17:51;;;;;;;0.25;0.25;;;11.90;99.90;;;;;;5011297;28;20057;-69
2022/05/14 04:20:17;;;;;;;0.10;0.10;;;11.90;99.90;;;;;;5012729;28;20509;-69
2022/05/14 04:22:43;;;;;;;0.10;0.10;;;11.90;99.90;;;;;;5024434;28;20045;-69
2022/05/14 04:25:11;;;;;;;0.10;0.10;;;11.80;99.90;;;;;;5031515;28;20511;-69
2022/05/14 04:27:36;;;;;;;0.80;0.80;;;11.80;99.90;;;;;;5029045;28;20041;-68
2022/05/14 04:30:03;;;;;;;0.85;0.85;;;11.90;99.90;;;;;;5031957;28;20094;-69
2022/05/14 04:32:29;;;;;;;0.40;0.40;;;11.80;99.90;;;;;;5030296;28;20053;-69
2022/05/14 04:34:56;;;;;;;0.47;0.47;;;11.80;99.90;;;;;;5032664;28;20038;-68
2022/05/14 04:37:21;;;;;;;1.35;0.98;;;11.70;99.90;;;;;;5019373;28;20401;-69
2022/05/14 04:39:47;;;;;;;0.30;0.30;;;11.70;99.90;;;;;;5011910;28;20038;-68
2022/05/14 04:42:12;;;;;;;0.68;0.68;;;11.80;99.90;;;;;;5012598;28;20548;-69
2022/05/14 04:44:38;;;;;;;1.27;1.17;;;11.90;99.90;;;;;;5011416;28;20128;-69
2022/05/14 04:47:05;;;;;;;1.55;1.45;;;11.90;99.90;;;;;;5016729;28;20049;-69
2022/05/14 04:49:31;;;;;;;0.10;0.10;;;11.90;99.90;;;;;;5030687;28;20124;-69
2022/05/14 04:51:57;;;;;;;1.55;1.10;;;12.00;99.90;;;;;;5031086;28;20124;-69
2022/05/14 04:54:23;;;;;;;1.75;0.98;;;11.90;99.90;;;;;;5030575;28;20041;-69
2022/05/14 04:56:49;;;;;;;0.25;0.25;;;11.90;99.90;;;;;;5010410;28;20064;-69
2022/05/14 04:59:14;;;;;;;0.85;0.63;;;12.00;99.90;;;;;;5011799;28;20054;-69
2022/05/14 05:03:16;;;;;;;0.10;0.10;;;12.00;99.90;;;;;;5009649;28;20062;-69
2022/05/14 05:04:26;;;;;;;0.20;0.20;;;12.00;99.90;;;;;;5011986;28;20046;-69
2022/05/14 05:06:51;;;;;;;0.63;0.52;;;12.00;99.90;;;;;;5022794;28;20493;-69
2022/05/14 05:09:17;;;;;;;0.00;0.00;;;12.10;99.90;;;;;;5031671;28;20053;-69
2022/05/14 05:11:42;;;;;;;0.10;0.10;;;12.10;99.90;;;;;;5030418;28;20081;-69
2022/05/14 05:14:08;;;;;;;0.20;0.20;;;12.10;99.90;;;;;;5029240;28;20049;-69
2022/05/14 05:16:35;;;;;;;0.28;0.28;;;12.10;99.90;;;;;;5031109;28;20444;-69
2022/05/14 05:19:01;;;;;;;0.20;0.20;;;12.10;99.90;;;;;;5014289;28;20049;-69
2022/05/14 05:21:26;;;;;;;0.00;0.00;;;12.30;99.90;;;;;;5009545;28;20042;-69
2022/05/14 05:23:52;;;;;;;17.15;2.50;;;12.30;99.90;;;;;;5022811;28;20046;-69
2022/05/14 05:26:17;;;;;;;3.63;1.48;;;12.40;99.90;;;;;;5031409;28;20135;-69
2022/05/14 05:28:43;;;;;;;0.20;0.20;;;12.40;99.90;;;;;;5029128;28;20042;-69
2022/05/14 05:31:08;;;;;;;0.32;0.32;;;12.40;99.90;;;;;;5031314;28;20401;-69
2022/05/14 05:33:34;;;;;;;0.00;0.00;;;12.50;99.90;;;;;;5012501;28;20049;-69
2022/05/14 05:35:59;;;;;;;0.10;0.10;;;12.50;99.90;;;;;;5009622;28;20049;-69
2022/05/14 05:38:25;;;;;;;0.45;0.40;;;12.50;99.90;;;;;;5011159;28;20048;-69
2022/05/14 05:40:52;;;;;;;0.63;0.63;;;12.60;99.90;;;;;;5011543;28;20045;-69
2022/05/14 05:43:17;;;;;;;0.10;0.10;;;12.60;99.90;;;;;;5009886;28;20072;-69
2022/05/14 05:45:47;;;;;;;0.20;0.20;;;12.60;99.90;;;;;;5011358;28;20046;-69
2022/05/14 05:48:12;;;;;;;0.57;0.57;;;12.70;99.90;;;;;;5009825;28;20085;-69
2022/05/14 05:50:38;;;;;;;0.30;0.30;;;12.80;99.90;;;;;;5009503;28;20661;-69
2022/05/14 05:53:05;;;;;;;1.35;0.95;;;12.90;99.90;;;;;;5011341;28;20042;-69
2022/05/14 05:58:19;;;;;;;0.20;0.20;;;13.00;99.90;;;;;;5027603;28;20115;-69
2022/05/14 06:00:45;;;;;;;3.40;1.90;;;13.10;99.90;;;;;;5027130;28;20061;-69
2022/05/14 06:03:11;;;;;;;0.10;0.10;;;13.10;99.90;;;;;;5012303;28;20045;-69
2022/05/14 06:05:37;;;;;;;0.32;0.32;;;13.20;99.90;;;;;;5017132;28;20037;-69
2022/05/14 06:08:08;;;;;;;0.73;0.73;;;13.30;99.90;;;;;;5030530;28;20072;-69
2022/05/14 06:10:34;;;;;;;0.05;0.05;;;13.40;99.90;;;;;;5025332;28;20048;-69
2022/05/14 06:12:59;;;;;;;0.32;0.32;;;13.40;99.90;;;;;;5029232;28;20057;-69
2022/05/14 06:15:25;;;;;;;0.10;0.10;;;13.50;99.90;;;;;;5014025;28;20436;-69
2022/05/14 06:17:50;;;;;;;0.10;0.10;;;13.50;99.90;;;;;;5010163;28;20050;-70
2022/05/14 06:20:17;;;;;;;0.30;0.30;;;13.60;99.90;;;;;;5011590;28;20100;-69
2022/05/14 06:22:43;;;;;;;0.20;0.20;;;13.70;99.90;;;;;;5030559;28;20120;-69
2022/05/14 06:25:10;;;;;;;0.20;0.20;;;13.70;99.90;;;;;;5009323;28;20080;-69
2022/05/14 06:27:36;;;;;;;0.00;0.00;;;13.80;99.90;;;;;;5010374;28;20100;-69
2022/05/14 06:30:01;;;;;;;0.08;0.08;;;13.90;99.90;;;;;;5010837;28;20053;-69
2022/05/14 06:32:27;;;;;;;0.45;0.45;;;13.90;99.90;;;;;;5008709;28;20060;-69
2022/05/14 06:34:53;;;;;;;2.28;1.05;;;14.00;99.90;;;;;;5008115;28;20042;-69
2022/05/14 06:37:18;;;;;;;0.88;0.80;;;14.00;99.90;;;;;;5010616;28;20053;-69
2022/05/14 06:39:44;;;;;;;0.10;0.10;;;14.00;99.90;;;;;;5010305;28;20078;-69
2022/05/14 06:42:11;;;;;;;0.10;0.10;;;14.10;99.90;;;;;;5010308;28;20050;-68
2022/05/14 06:44:37;;;;;;;0.10;0.10;;;14.20;99.90;;;;;;5010667;28;20122;-69
2022/05/14 06:47:03;;;;;;;0.10;0.10;;;14.20;99.90;;;;;;5008539;28;20045;-69
2022/05/14 06:49:29;;;;;;;0.00;0.00;;;14.20;99.90;;;;;;5007565;28;20065;-69
2022/05/14 06:51:57;;;;;;;4.32;0.93;;;14.30;99.90;;;;;;5009887;28;20045;-69
2022/05/14 06:54:23;;;;;;;0.10;0.10;;;14.40;99.90;;;;;;5010530;28;20042;-69
2022/05/14 06:56:49;;;;;;;0.08;0.08;;;14.40;99.90;;;;;;5009797;28;20049;-69
2022/05/14 06:59:15;;;;;;;1.33;1.23;;;14.50;99.90;;;;;;5009316;28;20050;-68
2022/05/14 07:01:44;;;;;;;1.23;1.00;;;14.60;99.90;;;;;;5010095;28;20053;-69
2022/05/14 07:06:57;;;;;;;0.10;0.10;;;14.70;99.90;;;;;;5009909;28;20444;-69
2022/05/14 07:09:27;;;;;;;0.00;0.00;;;14.80;99.90;;;;;;5026355;28;20038;-69
2022/05/14 07:11:57;;;;;;;0.52;0.52;;;14.80;99.90;;;;;;5030204;28;20392;-69
2022/05/14 07:14:24;;;;;;;0.65;0.30;;;14.90;99.90;;;;;;5026126;28;20041;-69
2022/05/14 07:16:50;;;;;;;0.15;0.15;;;14.90;99.90;;;;;;5028707;28;20385;-69
2022/05/14 07:19:16;;;;;;;0.03;0.03;;;14.90;99.90;;;;;;5029757;28;20481;-69
2022/05/14 07:21:44;;;;;;;0.10;0.10;;;15.00;99.90;;;;;;5027102;28;20044;-69
2022/05/14 07:24:15;;;;;;;6.40;1.38;;;15.00;99.90;;;;;;5029944;28;20123;-69
2022/05/14 07:26:41;;;;;;;0.47;0.47;;;15.00;99.90;;;;;;5029845;28;20183;-68
2022/05/14 07:29:10;;;;;;;2.05;0.75;;;15.10;99.90;;;;;;5028925;28;20045;-69
2022/05/14 07:31:36;;;;;;;0.00;0.00;;;15.20;99.90;;;;;;5023469;28;20100;-69
2022/05/14 07:34:03;;;;;;;0.32;0.32;;;15.20;99.90;;;;;;5009150;28;20125;-69
2022/05/14 07:36:32;;;;;;;1.38;0.55;;;15.30;99.90;;;;;;5008540;28;20053;-69
2022/05/14 07:39:01;;;;;;;0.10;0.10;;;15.40;99.90;;;;;;5009851;28;20050;-69
2022/05/14 07:41:28;;;;;;;0.70;0.68;;;15.40;99.90;;;;;;5009101;28;20492;-69
2022/05/14 07:43:58;;;;;;;0.10;0.10;;;15.50;99.90;;;;;;5013711;28;20053;-69
2022/05/14 07:46:27;;;;;;;1.60;1.35;;;15.50;99.90;;;;;;5012170;28;20408;-69
2022/05/14 07:48:54;;;;;;;0.30;0.28;;;15.50;99.90;;;;;;5012609;28;20512;-69
2022/05/14 07:51:20;;;;;;;0.10;0.10;;;15.50;99.90;;;;;;5013299;28;20041;-70
2022/05/14 07:53:46;;;;;;;0.00;0.00;;;15.50;99.90;;;;;;5012150;28;20088;-69
2022/05/14 07:56:12;;;;;;;0.38;0.38;;;15.60;99.90;;;;;;5026006;28;20116;-69
2022/05/14 07:58:39;;;;;;;0.20;0.20;;;15.60;99.90;;;;;;5030190;28;20409;-69
2022/05/14 08:01:05;;;;;;;0.17;0.17;;;15.70;99.90;;;;;;5027941;28;20077;-70
2022/05/14 08:03:32;;;;;;;0.63;0.63;;;15.70;99.90;;;;;;5012195;28;20519;-69
2022/05/14 08:05:58;;;;;;;2.53;1.02;;;15.80;99.90;;;;;;5011688;28;20050;-69
2022/05/14 08:08:24;;;;;;;0.63;0.63;;;15.90;99.90;;;;;;5010428;28;20057;-69
2022/05/14 08:10:51;;;;;;;0.00;0.00;;;15.90;99.90;;;;;;5012412;28;20037;-69
2022/05/14 08:13:18;;;;;;;0.10;0.10;;;16.00;99.90;;;;;;5012622;28;20054;-69
2022/05/14 08:15:45;;;;;;;3.10;1.00;;;16.00;99.90;;;;;;5030774;28;20037;-69
2022/05/14 08:18:11;;;;;;;0.20;0.20;;;16.00;99.90;;;;;;5032144;28;20038;-69
2022/05/14 08:20:39;;;;;;;4.10;1.75;;;16.00;99.90;;;;;;5032541;28;20041;-69
2022/05/14 08:25:56;;;;;;;0.00;0.00;;;16.10;99.90;;;;;;5027261;28;20128;-69
2022/05/14 08:28:22;;;;;;;1.45;1.35;;;16.20;99.90;;;;;;5029397;28;20041;-69
2022/05/14 08:30:48;;;;;;;1.92;1.80;;;16.20;99.90;;;;;;5030932;28;20042;-69
2022/05/14 08:33:13;;;;;;;0.80;0.80;;;16.30;99.90;;;;;;5032418;28;20378;-69
2022/05/14 08:35:39;;;;;;;0.10;0.10;;;16.30;99.90;;;;;;5030918;28;20100;-69
2022/05/14 08:38:08;;;;;;;0.43;0.43;;;16.30;99.90;;;;;;5029315;28;20568;-69
2022/05/14 08:40:42;;;;;;;2.35;0.40;;;16.40;99.90;;;;;;5030990;28;20037;-69
2022/05/14 08:43:15;;;;;;;0.03;0.03;;;16.40;99.90;;;;;;5028761;28;20045;-68
2022/05/14 08:45:40;;;;;;;0.10;0.10;;;16.50;99.90;;;;;;5031766;28;20077;-69
2022/05/14 08:48:28;;;;;;;0.95;0.63;;;16.60;99.90;;;;;;5031953;28;20464;-69
2022/05/14 08:51:04;;;;;;;0.00;0.00;;;16.60;99.90;;;;;;5024671;28;20587;-68
2022/05/14 08:53:30;;;;;;;0.10;0.10;;;16.70;99.90;;;;;;5010581;28;20049;-69
2022/05/14 08:56:20;;;;;;;0.08;0.08;;;16.80;99.90;;;;;;5011083;28;20068;-68
2022/05/14 08:58:49;;;;;;;3.65;0.80;;;16.90;99.90;;;;;;5011123;28;20803;-68
2022/05/14 09:01:19;;;;;;;0.10;0.10;;;16.90;99.90;;;;;;5012231;28;20045;-68
2022/05/14 09:03:45;;;;;;;0.00;0.00;;;17.10;99.90;;;;;;5010889;28;20089;-68
2022/05/14 09:06:11;;;;;;;0.52;0.52;;;17.10;99.90;;;;;;5010000;28;20418;-68
2022/05/14 09:08:36;;;;;;;0.00;0.00;;;17.20;99.90;;;;;;5020022;28;20444;-68
2022/05/14 09:11:10;;;;;;;1.08;0.90;;;17.20;99.90;;;;;;5031480;28;20477;-68
2022/05/14 09:13:46;;;;;;;0.35;0.32;;;17.30;99.90;;;;;;5029716;28;20891;-68
2022/05/14 09:16:29;;;;;;;3.42;1.15;;;17.40;99.90;;;;;;5016414;28;20041;-68
2022/05/14 09:18:56;;;;;;;0.17;0.17;;;17.50;99.90;;;;;;5031646;28;20099;-68
2022/05/14 09:21:30;;;;;;;0.30;0.30;;;17.60;99.90;;;;;;5020064;28;20104;-68
2022/05/14 09:24:15;;;;;;;0.00;0.00;;;17.70;99.90;;;;;;5010810;28;20085;-68
2022/05/14 09:26:42;;;;;;;0.00;0.00;;;17.70;99.90;;;;;;5027690;28;20445;-68
2022/05/14 09:29:28;;;;;;;0.10;0.10;;;17.90;99.90;;;;;;5021042;28;20188;-67
2022/05/14 09:32:21;;;;;;;0.57;0.57;;;18.00;99.90;;;;;;5025614;28;20183;-67
2022/05/14 09:34:48;;;;;;;0.20;0.20;;;18.00;99.90;;;;;;5029965;28;20050;-68
2022/05/14 09:37:23;;;;;;;0.00;0.00;;;18.30;99.90;;;;;;5028055;28;20049;-68
2022/05/14 09:40:00;;;;;;;1.10;0.20;;;18.70;99.90;;;;;;5031104;28;20056;-68
2022/05/14 09:42:36;;;;;;;5.13;2.20;;;19.20;99.90;;;;;;5030206;28;20485;-67
2022/05/14 09:45:19;;;;;;;1.80;1.35;;;19.30;99.90;;;;;;5020780;28;20049;-68
2022/05/14 09:47:44;;;;;;;1.38;1.30;;;19.60;99.90;;;;;;5009548;28;20080;-68
2022/05/14 09:50:19;;;;;;;0.10;0.10;;;20.00;99.90;;;;;;5010951;28;20489;-68
2022/05/14 09:52:56;;;;;;;0.00;0.00;;;19.80;99.90;;;;;;5011573;28;20041;-67
2022/05/14 09:55:23;;;;;;;4.43;2.08;;;20.20;99.90;;;;;;5020265;28;20033;-67
2022/05/14 09:58:00;;;;;;;1.50;1.40;;;20.20;99.90;;;;;;5030627;28;20057;-67
2022/05/14 10:00:38;;;;;;;1.27;1.23;;;20.50;99.90;;;;;;5030530;28;20060;-68
2022/05/14 10:03:27;;;;;;;0.22;0.22;;;20.40;99.90;;;;;;5024161;28;20112;-68
2022/05/14 10:06:11;;;;;;;0.93;0.43;;;20.60;99.90;;;;;;5011231;28;20045;-68
2022/05/14 10:08:44;;;;;;;0.20;0.20;;;20.70;99.90;;;;;;5009634;28;20042;-67
2022/05/14 10:11:18;;;;;;;0.13;0.13;;;20.90;99.90;;;;;;5009343;28;20123;-68
2022/05/14 10:14:04;;;;;;;0.20;0.20;;;21.00;99.90;;;;;;5012488;28;20485;-68
2022/05/14 10:16:34;;;;;;;0.00;0.00;;;20.90;99.90;;;;;;5008698;28;20065;-67
2022/05/14 10:19:32;;;;;;;0.00;0.00;;;20.90;99.90;;;;;;5009432;28;20053;-68
2022/05/14 10:28:37;;;;;;;0.63;0.63;;;21.10;99.90;;;;;;5026470;28;20049;-67
2022/05/14 10:31:24;;;;;;;2.72;0.98;;;21.00;99.90;;;;;;5029574;28;20399;-67
2022/05/14 10:33:54;;;;;;;0.00;0.00;;;21.10;99.90;;;;;;5030533;28;20045;-67
2022/05/14 10:36:35;;;;;;;0.30;0.30;;;20.90;99.90;;;;;;5027861;28;20053;-67
2022/05/14 10:39:14;;;;;;;0.57;0.57;;;21.00;99.90;;;;;;5027770;28;20076;-66
2022/05/14 10:41:46;;;;;;;0.00;0.00;;;20.90;99.90;;;;;;5029995;28;20134;-67
2022/05/14 10:44:14;;;;;;;0.15;0.15;;;21.00;99.90;;;;;;5028007;28;20047;-67
2022/05/14 10:46:42;;;;;;;0.10;0.10;;;20.90;99.90;;;;;;5028927;28;20366;-67
2022/05/14 10:49:13;;;;;;;6.03;0.63;;;21.10;99.90;;;;;;5027786;28;20107;-67
2022/05/14 10:51:51;;;;;;;6.50;1.95;;;21.20;99.90;;;;;;5029553;28;20072;-67
2022/05/14 10:54:22;;;;;;;0.10;0.10;;;21.10;99.90;;;;;;5021663;28;20048;-67
2022/05/14 10:57:01;;;;;;;1.35;0.93;;;21.30;99.90;;;;;;5010574;28;20042;-67
2022/05/14 10:59:34;;;;;;;9.43;2.70;;;21.20;99.90;;;;;;5008081;28;20076;-67
2022/05/14 11:02:11;;;;;;;0.10;0.10;;;21.30;99.90;;;;;;5009987;28;20053;-67
2022/05/14 11:04:45;;;;;;;3.85;0.47;;;21.40;99.90;;;;;;5009136;28;20049;-67
2022/05/14 11:07:27;;;;;;;0.75;0.52;;;21.50;99.90;;;;;;5021862;28;20396;-67
2022/05/14 11:09:53;;;;;;;16.55;1.40;;;21.60;99.90;;;;;;5030019;28;20052;-67
2022/05/14 11:12:19;;;;;;;0.30;0.30;;;21.80;99.90;;;;;;5027615;28;20046;-67
2022/05/14 11:14:53;;;;;;;0.10;0.10;;;21.70;99.90;;;;;;5018418;28;20050;-67
2022/05/14 11:17:23;;;;;;;0.75;0.43;;;21.70;99.90;;;;;;5013082;28;20049;-67
2022/05/14 11:19:49;;;;;;;0.00;0.00;;;21.40;99.90;;;;;;5013475;28;20064;-67
2022/05/14 11:22:39;;;;;;;0.20;0.20;;;21.80;99.90;;;;;;5013553;28;20520;-67
2022/05/14 11:25:19;;;;;;;5.68;2.17;;;22.20;99.90;;;;;;5014362;28;20057;-66
2022/05/14 11:28:03;;;;;;;12.68;4.18;;;21.80;99.90;;;;;;5013762;28;20057;-67
2022/05/14 11:30:36;;;;;;;0.80;0.80;;;21.80;99.90;;;;;;5025238;28;20158;-67
2022/05/14 11:33:17;;;;;;;0.10;0.10;;;21.90;99.90;;;;;;5033701;28;20076;-67
2022/05/14 11:35:45;;;;;;;1.30;0.90;;;21.90;99.90;;;;;;5033840;28;20111;-67
2022/05/14 11:38:16;;;;;;;0.40;0.40;;;22.30;99.90;;;;;;5031910;28;20044;-67
2022/05/14 11:40:42;;;;;;;0.00;0.00;;;22.50;99.60;;;;;;5012947;28;20389;-67
2022/05/14 11:43:20;;;;;;;7.55;2.53;;;22.40;99.40;;;;;;5017942;28;20045;-67
2022/05/14 11:46:12;;;;;;;0.00;0.00;;;22.40;99.80;;;;;;5033797;28;20049;-67
2022/05/14 11:49:02;;;;;;;0.35;0.35;;;22.60;99.10;;;;;;5019608;28;20061;-67
2022/05/14 11:51:27;;;;;;;13.77;2.85;;;22.90;99.30;;;;;;5013232;28;20405;-67
2022/05/14 11:54:05;;;;;;;0.15;0.15;;;22.60;99.90;;;;;;5014202;28;20053;-67
2022/05/14 11:56:45;;;;;;;0.25;0.25;;;22.70;98.50;;;;;;5026482;28;20041;-67
2022/05/14 11:59:35;;;;;;;9.95;0.88;;;22.20;99.20;;;;;;5033022;28;20560;-67
2022/05/14 12:02:04;;;;;;;0.90;0.90;;;22.40;99.90;;;;;;5031330;28;20050;-67
2022/05/14 12:04:37;;;;;;;0.40;0.30;;;22.90;99.50;;;;;;5031184;28;20075;-67
2022/05/14 12:07:45;;;;;;;3.33;1.45;;;23.00;99.20;;;;;;5031809;28;20095;-67
2022/05/14 12:10:52;;;;;;;6.32;1.90;;;22.60;97.90;;;;;;5023148;28;20155;-67
2022/05/14 12:13:32;;;;;;;0.08;0.08;;;22.60;98.80;;;;;;5031734;28;20458;-67
2022/05/14 12:16:00;;;;;;;0.90;0.85;;;22.70;97.90;;;;;;5010958;28;20498;-68
2022/05/14 12:18:27;;;;;;;0.45;0.45;;;23.00;98.10;;;;;;5012545;28;20058;-67
2022/05/14 12:20:57;;;;;;;1.00;0.30;;;23.40;98.70;;;;;;5012069;28;20461;-67
2022/05/14 12:23:44;;;;;;;0.05;0.05;;;23.60;97.70;;;;;;5009846;28;20046;-68
2022/05/14 12:26:29;;;;;;;0.00;0.00;;;23.70;98.90;;;;;;5025640;28;20135;-67
2022/05/14 12:28:57;;;;;;;0.10;0.10;;;23.90;98.20;;;;;;5028206;28;20045;-67
2022/05/14 12:34:19;;;;;;;0.10;0.10;;;23.70;98.50;;;;;;5030564;28;20054;-68
2022/05/14 12:36:53;;;;;;;0.00;0.00;;;23.90;97.50;;;;;;5030516;28;20049;-68
2022/05/14 12:39:29;;;;;;;0.15;0.15;;;24.40;97.00;;;;;;5032472;28;20139;-68
2022/05/14 12:41:59;;;;;;;4.35;0.80;;;23.40;96.80;;;;;;5033110;28;20058;-68
2022/05/14 12:44:28;;;;;;;0.38;0.38;;;23.10;97.50;;;;;;5030000;28;20095;-68
2022/05/14 12:46:57;;;;;;;0.32;0.32;;;23.50;97.30;;;;;;5032661;28;20064;-68
2022/05/14 12:49:24;;;;;;;0.00;0.00;;;23.60;96.90;;;;;;5030930;28;20053;-68
2022/05/14 12:51:59;;;;;;;0.05;0.05;;;23.90;96.40;;;;;;5031971;28;20029;-68
2022/05/14 12:54:29;;;;;;;0.00;0.00;;;23.90;97.00;;;;;;5014655;28;20114;-68
2022/05/14 12:56:59;;;;;;;0.10;0.10;;;24.20;96.50;;;;;;5012384;28;20543;-68
2022/05/14 12:59:26;;;;;;;0.00;0.00;;;24.30;96.70;;;;;;5010568;28;20057;-68
2022/05/14 13:01:56;;;;;;;0.00;0.00;;;24.10;96.30;;;;;;5012288;28;20524;-68
2022/05/14 13:04:31;;;;;;;6.40;1.88;;;24.30;96.20;;;;;;5016410;28;20065;-68
2022/05/14 13:07:01;;;;;;;0.00;0.00;;;24.20;94.70;;;;;;5030503;28;20041;-68
2022/05/14 13:09:28;;;;;;;0.10;0.10;;;24.30;95.50;;;;;;5032154;28;20056;-68
2022/05/14 13:11:56;;;;;;;0.47;0.47;;;24.50;95.20;;;;;;5031735;28;20056;-68
2022/05/14 13:14:28;;;;;;;0.28;0.28;;;24.20;95.30;;;;;;5020175;28;20046;-68
2022/05/14 13:16:56;;;;;;;0.65;0.60;;;24.30;94.60;;;;;;5012420;28;20050;-68
2022/05/14 13:19:32;;;;;;;0.10;0.10;;;24.20;94.90;;;;;;5011005;28;20508;-68